createdAt,value
2017-10-29T00:00:28.918Z,0.00
2017-10-29T00:01:28.881Z,0.00
2017-10-29T00:02:28.873Z,0.00
2017-10-29T00:03:28.862Z,0.00
2017-10-29T00:04:28.853Z,0.00
2017-10-29T00:05:28.841Z,0.00
2017-10-29T00:06:28.835Z,0.00
2017-10-29T00:07:28.858Z,0.00
2017-10-29T00:08:28.814Z,0.00
2017-10-29T00:09:28.803Z,0.00
2017-10-29T00:10:28.794Z,0.00
2017-10-29T00:11:28.785Z,0.00
2017-10-29T00:12:28.777Z,0.00
2017-10-29T00:13:28.771Z,0.00
2017-10-29T00:14:28.757Z,0.00
2017-10-29T00:15:28.757Z,0.00
2017-10-29T00:16:28.739Z,0.00
2017-10-29T00:17:28.726Z,0.00
2017-10-29T00:18:28.718Z,0.00
2017-10-29T00:19:28.710Z,0.00
2017-10-29T00:20:28.697Z,0.00
2017-10-29T00:21:28.688Z,0.00
2017-10-29T00:22:28.694Z,0.00
2017-10-29T00:23:28.669Z,0.00
2017-10-29T00:24:28.660Z,0.00
2017-10-29T00:25:28.655Z,0.00
2017-10-29T00:26:28.649Z,0.00
2017-10-29T00:27:28.633Z,0.00
2017-10-29T00:28:28.628Z,0.00
2017-10-29T00:29:28.614Z,0.00
2017-10-29T00:30:28.604Z,0.00
2017-10-29T00:31:28.602Z,0.00
2017-10-29T00:32:28.587Z,0.00
2017-10-29T00:33:28.575Z,0.00
2017-10-29T00:34:28.576Z,0.00
2017-10-29T00:35:28.558Z,0.00
2017-10-29T00:36:28.546Z,0.00
2017-10-29T00:37:28.542Z,0.00
2017-10-29T00:38:28.527Z,0.00
2017-10-29T00:39:28.517Z,0.00
2017-10-29T00:40:28.515Z,0.00
2017-10-29T00:41:28.504Z,0.00
2017-10-29T00:42:28.488Z,0.00
2017-10-29T00:43:28.479Z,0.00
2017-10-29T00:44:28.475Z,0.00
2017-10-29T00:45:28.469Z,0.00
2017-10-29T00:46:28.460Z,0.00
2017-10-29T00:47:28.442Z,0.00
2017-10-29T00:48:28.431Z,0.00
2017-10-29T00:49:28.423Z,0.00
2017-10-29T00:50:28.412Z,0.00
2017-10-29T00:51:28.409Z,0.00
2017-10-29T00:52:28.392Z,0.00
2017-10-29T00:53:28.386Z,0.00
2017-10-29T00:54:28.374Z,0.00
2017-10-29T00:55:28.366Z,0.00
2017-10-29T00:56:28.353Z,0.00
2017-10-29T00:57:28.350Z,0.00
2017-10-29T00:58:28.346Z,0.00
2017-10-29T00:59:28.327Z,0.00
2017-10-29T01:00:28.321Z,0.00
2017-10-29T01:01:28.307Z,0.00
2017-10-29T01:02:28.297Z,0.00
2017-10-29T01:03:28.287Z,0.00
2017-10-29T01:04:28.278Z,0.00
2017-10-29T01:05:28.269Z,0.00
2017-10-29T01:06:28.266Z,0.00
2017-10-29T01:07:28.249Z,0.00
2017-10-29T01:08:28.240Z,0.00
2017-10-29T01:09:28.231Z,0.00
2017-10-29T01:10:28.227Z,0.00
2017-10-29T01:11:28.215Z,0.00
2017-10-29T01:12:28.201Z,0.00
2017-10-29T01:13:28.191Z,0.00
2017-10-29T01:14:28.182Z,0.00
2017-10-29T01:15:28.173Z,0.00
2017-10-29T01:16:28.163Z,0.00
2017-10-29T01:17:28.159Z,0.00
2017-10-29T01:18:28.147Z,0.00
2017-10-29T01:19:28.132Z,0.00
2017-10-29T01:20:28.122Z,0.00
2017-10-29T01:21:28.113Z,0.00
2017-10-29T01:22:28.103Z,0.00
2017-10-29T01:23:28.094Z,0.00
2017-10-29T01:24:28.084Z,0.00
2017-10-29T01:25:28.075Z,0.00
2017-10-29T01:26:28.064Z,0.00
2017-10-29T01:27:28.059Z,0.00
2017-10-29T01:28:28.052Z,0.00
2017-10-29T01:29:28.045Z,0.00
2017-10-29T01:30:28.028Z,0.00
2017-10-29T01:31:28.016Z,0.00
2017-10-29T01:32:28.008Z,0.00
2017-10-29T01:33:27.997Z,0.00
2017-10-29T01:34:27.985Z,0.00
2017-10-29T01:35:27.981Z,0.00
2017-10-29T01:36:27.968Z,0.00
2017-10-29T01:37:27.956Z,0.00
2017-10-29T01:38:27.950Z,0.00
2017-10-29T01:39:27.937Z,0.00
2017-10-29T01:40:27.929Z,0.00
2017-10-29T01:41:27.924Z,0.00
2017-10-29T01:42:27.908Z,0.00
2017-10-29T01:43:27.903Z,0.00
2017-10-29T01:44:27.895Z,0.00
2017-10-29T01:45:27.877Z,0.00
2017-10-29T01:46:27.872Z,0.00
2017-10-29T01:47:27.859Z,0.00
2017-10-29T01:48:27.850Z,0.00
2017-10-29T01:49:27.839Z,0.00
2017-10-29T01:50:27.832Z,0.00
2017-10-29T01:51:27.819Z,0.00
2017-10-29T01:52:27.809Z,0.00
2017-10-29T01:53:27.799Z,0.00
2017-10-29T01:54:27.797Z,0.00
2017-10-29T01:55:27.780Z,0.00
2017-10-29T01:56:27.771Z,0.00
2017-10-29T01:57:27.760Z,0.00
2017-10-29T01:58:27.752Z,0.00
2017-10-29T01:59:27.747Z,0.00
2017-10-29T02:00:27.738Z,0.00
2017-10-29T02:01:27.724Z,0.00
2017-10-29T02:02:27.713Z,0.00
2017-10-29T02:03:27.701Z,0.00
2017-10-29T02:04:27.694Z,0.00
2017-10-29T02:05:27.682Z,0.00
2017-10-29T02:06:27.679Z,0.00
2017-10-29T02:07:27.668Z,0.00
2017-10-29T02:08:27.651Z,0.00
2017-10-29T02:09:27.644Z,0.00
2017-10-29T02:10:27.634Z,0.00
2017-10-29T02:11:27.623Z,0.00
2017-10-29T02:12:27.614Z,0.00
2017-10-29T02:13:27.604Z,0.00
2017-10-29T02:14:27.597Z,0.00
2017-10-29T02:15:27.586Z,0.00
2017-10-29T02:16:27.578Z,0.00
2017-10-29T02:17:27.565Z,0.00
2017-10-29T02:18:27.557Z,0.00
2017-10-29T02:19:27.551Z,0.00
2017-10-29T02:20:27.540Z,0.00
2017-10-29T02:21:27.530Z,0.00
2017-10-29T02:22:27.516Z,0.00
2017-10-29T02:23:27.509Z,0.00
2017-10-29T02:24:27.496Z,0.00
2017-10-29T02:25:27.489Z,0.00
2017-10-29T02:26:27.476Z,0.00
2017-10-29T02:27:27.468Z,0.00
2017-10-29T02:28:27.458Z,0.00
2017-10-29T02:29:27.451Z,0.00
2017-10-29T02:30:27.442Z,0.00
2017-10-29T02:31:27.436Z,0.00
2017-10-29T02:32:27.416Z,0.00
2017-10-29T02:33:27.409Z,0.00
2017-10-29T02:34:27.399Z,0.00
2017-10-29T02:35:27.391Z,0.00
2017-10-29T02:36:27.376Z,0.00
2017-10-29T02:37:27.373Z,0.00
2017-10-29T02:38:27.358Z,0.00
2017-10-29T02:39:27.349Z,0.00
2017-10-29T02:40:42.346Z,0.00
2017-10-29T02:41:27.329Z,0.00
2017-10-29T02:42:27.322Z,0.00
2017-10-29T02:43:27.319Z,0.00
2017-10-29T02:44:27.298Z,0.00
2017-10-29T02:45:27.291Z,0.00
2017-10-29T02:46:27.284Z,0.00
2017-10-29T02:47:27.268Z,0.00
2017-10-29T02:48:27.261Z,0.00
2017-10-29T02:49:27.252Z,0.00
2017-10-29T02:50:27.244Z,0.00
2017-10-29T02:51:27.230Z,0.00
2017-10-29T02:52:27.218Z,0.00
2017-10-29T02:53:27.208Z,0.00
2017-10-29T02:54:27.201Z,0.00
2017-10-29T02:55:27.192Z,0.00
2017-10-29T02:56:27.178Z,0.00
2017-10-29T02:57:27.169Z,0.00
2017-10-29T02:58:27.163Z,0.00
2017-10-29T02:59:27.148Z,0.00
2017-10-29T03:00:27.140Z,0.00
2017-10-29T03:01:27.129Z,0.00
2017-10-29T03:02:27.128Z,0.00
2017-10-29T03:03:27.107Z,0.00
2017-10-29T03:04:27.097Z,0.00
2017-10-29T03:05:27.092Z,0.00
2017-10-29T03:06:27.079Z,0.00
2017-10-29T03:07:27.074Z,0.00
2017-10-29T03:08:27.067Z,0.00
2017-10-29T03:09:27.050Z,0.00
2017-10-29T03:10:27.037Z,0.00
2017-10-29T03:11:27.028Z,0.00
2017-10-29T03:12:27.018Z,0.00
2017-10-29T03:13:27.007Z,0.00
2017-10-29T03:14:27.001Z,0.00
2017-10-29T03:15:26.989Z,0.00
2017-10-29T03:16:26.978Z,0.00
2017-10-29T03:17:26.968Z,0.00
2017-10-29T03:18:26.961Z,0.00
2017-10-29T03:19:26.947Z,0.00
2017-10-29T03:20:26.954Z,0.00
2017-10-29T03:21:26.930Z,0.00
2017-10-29T03:22:26.933Z,0.00
2017-10-29T03:23:26.919Z,0.00
2017-10-29T03:24:26.896Z,0.00
2017-10-29T03:25:26.890Z,0.00
2017-10-29T03:26:26.880Z,0.00
2017-10-29T03:27:26.870Z,0.00
2017-10-29T03:28:26.858Z,0.00
2017-10-29T03:29:26.850Z,0.00
2017-10-29T03:30:26.860Z,0.00
2017-10-29T03:31:26.827Z,0.00
2017-10-29T03:32:26.818Z,0.00
2017-10-29T03:33:26.807Z,0.00
2017-10-29T03:34:26.799Z,0.00
2017-10-29T03:35:26.788Z,0.00
2017-10-29T03:36:26.779Z,0.00
2017-10-29T03:37:26.766Z,0.00
2017-10-29T03:38:29.367Z,0.00
2017-10-29T03:39:26.748Z,0.00
2017-10-29T03:40:26.737Z,0.00
2017-10-29T03:41:26.725Z,0.00
2017-10-29T03:42:26.719Z,0.00
2017-10-29T03:43:26.703Z,0.00
2017-10-29T03:44:26.694Z,0.00
2017-10-29T03:45:26.687Z,0.00
2017-10-29T03:46:26.673Z,0.00
2017-10-29T03:47:26.666Z,0.00
2017-10-29T03:48:26.655Z,0.00
2017-10-29T03:49:26.649Z,0.00
2017-10-29T03:50:26.638Z,0.00
2017-10-29T03:51:26.629Z,0.00
2017-10-29T03:52:26.613Z,0.00
2017-10-29T03:53:26.601Z,0.00
2017-10-29T03:54:26.596Z,0.00
2017-10-29T03:55:26.583Z,0.00
2017-10-29T03:56:26.569Z,0.00
2017-10-29T03:57:26.561Z,0.00
2017-10-29T03:58:26.549Z,0.00
2017-10-29T03:59:26.539Z,0.00
2017-10-29T04:00:26.528Z,0.00
2017-10-29T04:01:26.520Z,0.00
2017-10-29T04:02:26.509Z,0.00
2017-10-29T04:03:26.501Z,0.00
2017-10-29T04:04:26.488Z,0.00
2017-10-29T04:05:26.477Z,0.00
2017-10-29T04:06:26.468Z,0.00
2017-10-29T04:07:26.456Z,0.00
2017-10-29T04:08:26.447Z,0.00
2017-10-29T04:09:26.435Z,0.00
2017-10-29T04:10:26.427Z,0.00
2017-10-29T04:11:26.416Z,0.00
2017-10-29T04:12:26.405Z,0.00
2017-10-29T04:13:26.395Z,0.00
2017-10-29T04:14:26.383Z,0.00
2017-10-29T04:15:26.380Z,0.00
2017-10-29T04:16:26.363Z,0.00
2017-10-29T04:17:26.353Z,0.00
2017-10-29T04:18:26.341Z,0.00
2017-10-29T04:19:26.331Z,0.00
2017-10-29T04:20:26.319Z,0.00
2017-10-29T04:21:26.318Z,0.00
2017-10-29T04:22:26.298Z,0.00
2017-10-29T04:23:26.288Z,0.00
2017-10-29T04:24:26.277Z,0.00
2017-10-29T04:25:26.272Z,0.00
2017-10-29T04:26:26.257Z,0.00
2017-10-29T04:27:26.252Z,0.00
2017-10-29T04:28:26.239Z,0.00
2017-10-29T04:29:26.237Z,0.00
2017-10-29T04:30:26.218Z,0.00
2017-10-29T04:31:26.202Z,0.00
2017-10-29T04:32:26.191Z,0.00
2017-10-29T04:33:26.191Z,0.00
2017-10-29T04:34:26.172Z,0.00
2017-10-29T04:35:26.164Z,0.00
2017-10-29T04:36:26.148Z,0.00
2017-10-29T04:37:26.145Z,0.00
2017-10-29T04:38:26.127Z,0.00
2017-10-29T04:39:26.118Z,0.00
2017-10-29T04:40:26.110Z,0.00
2017-10-29T04:41:26.101Z,0.00
2017-10-29T04:42:26.089Z,0.00
2017-10-29T04:43:26.076Z,0.00
2017-10-29T04:44:26.065Z,0.00
2017-10-29T04:45:26.062Z,0.00
2017-10-29T04:46:26.046Z,0.00
2017-10-29T04:47:26.033Z,0.00
2017-10-29T04:48:26.032Z,0.00
2017-10-29T04:49:26.010Z,0.00
2017-10-29T04:50:26.000Z,0.00
2017-10-29T04:51:25.996Z,0.00
2017-10-29T04:52:25.984Z,0.00
2017-10-29T04:53:25.971Z,0.00
2017-10-29T04:54:25.960Z,0.00
2017-10-29T04:55:25.952Z,0.00
2017-10-29T04:56:25.938Z,0.00
2017-10-29T04:57:25.927Z,0.00
2017-10-29T04:58:25.918Z,0.00
2017-10-29T04:59:25.907Z,0.00
2017-10-29T05:00:25.897Z,0.00
2017-10-29T05:01:25.887Z,0.00
2017-10-29T05:02:25.879Z,0.00
2017-10-29T05:03:25.866Z,0.00
2017-10-29T05:04:25.854Z,0.00
2017-10-29T05:05:25.847Z,0.00
2017-10-29T05:06:25.836Z,0.00
2017-10-29T05:07:25.823Z,0.00
2017-10-29T05:08:25.812Z,0.00
2017-10-29T05:09:25.804Z,0.00
2017-10-29T05:10:25.794Z,0.00
2017-10-29T05:11:25.782Z,0.00
2017-10-29T05:12:25.768Z,0.00
2017-10-29T05:13:25.759Z,0.00
2017-10-29T05:14:25.750Z,0.00
2017-10-29T05:15:25.739Z,0.00
2017-10-29T05:16:25.728Z,0.00
2017-10-29T05:17:25.723Z,0.00
2017-10-29T05:18:25.708Z,0.00
2017-10-29T05:19:25.714Z,0.00
2017-10-29T05:20:25.685Z,0.00
2017-10-29T05:21:25.674Z,0.00
2017-10-29T05:22:25.669Z,0.00
2017-10-29T05:23:25.654Z,0.00
2017-10-29T05:24:25.646Z,0.00
2017-10-29T05:25:25.638Z,0.00
2017-10-29T05:26:25.621Z,0.00
2017-10-29T05:27:25.611Z,0.00
2017-10-29T05:28:25.600Z,0.00
2017-10-29T05:29:25.589Z,0.00
2017-10-29T05:30:25.580Z,0.00
2017-10-29T05:31:25.578Z,0.00
2017-10-29T05:32:25.558Z,0.00
2017-10-29T05:33:25.548Z,0.00
2017-10-29T05:34:25.538Z,0.00
2017-10-29T05:35:25.526Z,0.00
2017-10-29T05:36:25.515Z,0.00
2017-10-29T05:37:25.506Z,0.00
2017-10-29T05:38:25.496Z,0.00
2017-10-29T05:39:25.485Z,0.00
2017-10-29T05:40:25.510Z,0.00
2017-10-29T05:41:25.463Z,0.00
2017-10-29T05:42:25.459Z,0.00
2017-10-29T05:43:25.440Z,0.00
2017-10-29T05:44:25.434Z,0.00
2017-10-29T05:45:25.420Z,0.00
2017-10-29T05:46:25.415Z,4.00
2017-10-29T05:47:25.401Z,0.00
2017-10-29T05:48:25.388Z,4.00
2017-10-29T05:49:25.378Z,4.00
2017-10-29T05:50:25.372Z,4.00
2017-10-29T05:51:25.359Z,4.00
2017-10-29T05:52:25.345Z,8.00
2017-10-29T05:53:25.334Z,12.00
2017-10-29T05:54:25.324Z,12.00
2017-10-29T05:55:25.315Z,16.00
2017-10-29T05:56:25.307Z,16.00
2017-10-29T05:57:25.292Z,16.00
2017-10-29T05:58:25.302Z,20.00
2017-10-29T05:59:25.274Z,28.00
2017-10-29T06:00:25.260Z,32.00
2017-10-29T06:01:25.248Z,36.00
2017-10-29T06:02:25.240Z,44.00
2017-10-29T06:03:25.228Z,52.00
2017-10-29T06:04:25.217Z,60.00
2017-10-29T06:05:25.215Z,72.00
2017-10-29T06:06:25.195Z,80.00
2017-10-29T06:07:25.187Z,92.00
2017-10-29T06:08:25.171Z,108.00
2017-10-29T06:09:25.163Z,120.00
2017-10-29T06:10:25.149Z,132.00
2017-10-29T06:11:25.145Z,148.00
2017-10-29T06:12:25.128Z,160.00
2017-10-29T06:13:25.115Z,180.00
2017-10-29T06:14:25.119Z,204.00
2017-10-29T06:15:25.096Z,228.00
2017-10-29T06:16:25.092Z,252.00
2017-10-29T06:17:25.073Z,280.00
2017-10-29T06:18:25.065Z,284.00
2017-10-29T06:19:25.062Z,300.00
2017-10-29T06:20:25.045Z,308.00
2017-10-29T06:21:25.033Z,340.00
2017-10-29T06:22:25.019Z,376.00
2017-10-29T06:23:25.009Z,388.00
2017-10-29T06:24:25.000Z,416.00
2017-10-29T06:25:24.987Z,460.00
2017-10-29T06:26:24.976Z,488.00
2017-10-29T06:27:24.985Z,520.00
2017-10-29T06:28:24.955Z,552.00
2017-10-29T06:29:24.941Z,592.00
2017-10-29T06:30:24.930Z,628.00
2017-10-29T06:31:24.933Z,676.00
2017-10-29T06:32:24.910Z,752.00
2017-10-29T06:33:24.898Z,732.00
2017-10-29T06:34:24.891Z,776.00
2017-10-29T06:35:24.878Z,752.00
2017-10-29T06:36:24.863Z,812.00
2017-10-29T06:37:24.857Z,860.00
2017-10-29T06:38:24.844Z,876.00
2017-10-29T06:39:24.839Z,924.00
2017-10-29T06:40:24.820Z,1004.00
2017-10-29T06:41:24.816Z,1148.00
2017-10-29T06:42:24.799Z,1148.00
2017-10-29T06:43:24.789Z,1172.00
2017-10-29T06:44:24.776Z,1324.00
2017-10-29T06:45:24.776Z,1208.00
2017-10-29T06:46:24.756Z,1396.00
2017-10-29T06:47:24.744Z,1456.00
2017-10-29T06:48:24.733Z,1520.00
2017-10-29T06:49:24.723Z,1604.00
2017-10-29T06:50:24.712Z,1692.00
2017-10-29T06:51:24.699Z,1664.00
2017-10-29T06:52:24.690Z,1820.00
2017-10-29T06:53:24.677Z,1916.00
2017-10-29T06:54:24.671Z,2160.00
2017-10-29T06:55:24.656Z,2732.00
2017-10-29T06:56:24.644Z,2988.00
2017-10-29T06:57:24.637Z,3236.00
2017-10-29T06:58:24.624Z,2948.00
2017-10-29T06:59:24.612Z,2976.00
2017-10-29T07:00:24.608Z,3284.00
2017-10-29T07:01:24.589Z,3648.00
2017-10-29T07:02:24.578Z,4424.00
2017-10-29T07:03:24.568Z,4880.00
2017-10-29T07:04:24.566Z,3916.00
2017-10-29T07:05:24.545Z,4520.00
2017-10-29T07:06:24.551Z,5616.00
2017-10-29T07:07:24.522Z,3856.00
2017-10-29T07:08:24.513Z,2940.00
2017-10-29T07:09:24.501Z,2812.00
2017-10-29T07:10:24.491Z,3388.00
2017-10-29T07:11:24.482Z,3800.00
2017-10-29T07:12:24.475Z,3976.00
2017-10-29T07:13:24.457Z,4904.00
2017-10-29T07:14:24.447Z,4296.00
2017-10-29T07:15:24.436Z,3604.00
2017-10-29T07:16:24.433Z,2948.00
2017-10-29T07:17:24.420Z,3204.00
2017-10-29T07:18:24.403Z,2768.00
2017-10-29T07:19:24.392Z,2340.00
2017-10-29T07:20:24.380Z,3564.00
2017-10-29T07:21:24.380Z,3748.00
2017-10-29T07:22:24.360Z,3296.00
2017-10-29T07:23:24.349Z,3152.00
2017-10-29T07:24:24.344Z,3520.00
2017-10-29T07:25:24.330Z,4324.00
2017-10-29T07:26:24.315Z,4356.00
2017-10-29T07:27:24.305Z,4192.00
2017-10-29T07:28:24.295Z,3864.00
2017-10-29T07:29:24.286Z,3896.00
2017-10-29T07:30:24.272Z,3884.00
2017-10-29T07:31:24.262Z,4108.00
2017-10-29T07:32:24.252Z,4376.00
2017-10-29T07:33:24.240Z,4560.00
2017-10-29T07:34:24.234Z,5128.00
2017-10-29T07:35:24.221Z,6736.00
2017-10-29T07:36:24.208Z,8036.00
2017-10-29T07:37:24.197Z,6360.00
2017-10-29T07:38:24.187Z,5868.00
2017-10-29T07:39:24.178Z,5068.00
2017-10-29T07:40:24.163Z,4180.00
2017-10-29T07:41:24.159Z,4232.00
2017-10-29T07:42:24.143Z,4280.00
2017-10-29T07:43:24.140Z,4604.00
2017-10-29T07:44:24.125Z,4988.00
2017-10-29T07:45:24.113Z,5204.00
2017-10-29T07:46:24.102Z,5528.00
2017-10-29T07:47:24.096Z,5880.00
2017-10-29T07:48:24.079Z,6320.00
2017-10-29T07:49:24.072Z,6408.00
2017-10-29T07:50:24.059Z,7248.00
2017-10-29T07:51:24.051Z,6608.00
2017-10-29T07:52:24.035Z,7612.00
2017-10-29T07:53:24.027Z,7608.00
2017-10-29T07:54:24.015Z,6656.00
2017-10-29T07:55:24.007Z,5972.00
2017-10-29T07:56:23.993Z,6344.00
2017-10-29T07:57:23.983Z,6404.00
2017-10-29T07:58:23.972Z,6428.00
2017-10-29T07:59:23.968Z,6680.00
2017-10-29T08:00:23.951Z,6728.00
2017-10-29T08:01:23.940Z,6588.00
2017-10-29T08:02:23.935Z,6640.00
2017-10-29T08:03:23.920Z,6828.00
2017-10-29T08:04:23.911Z,7132.00
2017-10-29T08:05:23.898Z,7552.00
2017-10-29T08:06:23.892Z,7712.00
2017-10-29T08:07:23.876Z,7628.00
2017-10-29T08:08:23.871Z,7948.00
2017-10-29T08:09:23.856Z,8252.00
2017-10-29T08:10:23.849Z,9832.00
2017-10-29T08:11:23.835Z,9528.00
2017-10-29T08:12:23.824Z,9256.00
2017-10-29T08:13:23.842Z,9700.00
2017-10-29T08:14:23.802Z,9000.00
2017-10-29T08:15:23.793Z,9764.00
2017-10-29T08:16:23.785Z,10004.00
2017-10-29T08:17:23.774Z,10100.00
2017-10-29T08:18:23.764Z,10432.00
2017-10-29T08:19:23.755Z,10608.00
2017-10-29T08:20:23.741Z,10540.00
2017-10-29T08:21:23.731Z,11128.00
2017-10-29T08:22:23.721Z,12536.00
2017-10-29T08:23:23.716Z,11184.00
2017-10-29T08:24:23.699Z,11208.00
2017-10-29T08:25:23.688Z,13532.00
2017-10-29T08:26:23.680Z,14400.00
2017-10-29T08:27:23.668Z,10864.00
2017-10-29T08:28:23.660Z,9084.00
2017-10-29T08:29:23.654Z,10416.00
2017-10-29T08:30:23.639Z,10860.00
2017-10-29T08:31:23.634Z,26240.00
2017-10-29T08:32:23.618Z,20192.00
2017-10-29T08:33:23.608Z,22976.00
2017-10-29T08:34:23.599Z,22944.00
2017-10-29T08:35:23.588Z,30848.00
2017-10-29T08:36:23.577Z,27328.00
2017-10-29T08:37:23.583Z,32480.00
2017-10-29T08:38:23.559Z,33056.00
2017-10-29T08:39:23.549Z,33728.00
2017-10-29T08:40:23.539Z,35232.00
2017-10-29T08:41:23.534Z,37280.00
2017-10-29T08:42:23.522Z,37920.00
2017-10-29T08:43:23.514Z,36032.00
2017-10-29T08:44:23.501Z,12928.00
2017-10-29T08:45:23.494Z,15232.00
2017-10-29T08:46:23.484Z,34368.00
2017-10-29T08:47:23.476Z,35136.00
2017-10-29T08:48:23.468Z,35744.00
2017-10-29T08:49:23.457Z,35424.00
2017-10-29T08:50:23.449Z,37696.00
2017-10-29T08:51:23.442Z,39168.00
2017-10-29T08:52:23.432Z,40000.00
2017-10-29T08:53:23.424Z,39968.00
2017-10-29T08:54:23.415Z,40544.00
2017-10-29T08:55:23.409Z,42912.00
2017-10-29T08:56:23.406Z,43744.00
2017-10-29T08:57:23.396Z,43680.00
2017-10-29T08:58:23.385Z,43072.00
2017-10-29T08:59:23.378Z,44864.00
2017-10-29T09:00:23.369Z,18880.00
2017-10-29T09:01:23.365Z,35584.00
2017-10-29T09:02:23.362Z,19584.00
2017-10-29T09:03:23.350Z,45216.00
2017-10-29T09:04:23.343Z,23648.00
2017-10-29T09:05:23.335Z,21376.00
2017-10-29T09:06:23.331Z,11884.00
2017-10-29T09:07:23.322Z,9168.00
2017-10-29T09:08:23.315Z,8424.00
2017-10-29T09:09:23.311Z,9972.00
2017-10-29T09:10:23.305Z,11968.00
2017-10-29T09:11:23.296Z,16120.00
2017-10-29T09:12:23.291Z,14864.00
2017-10-29T09:13:23.288Z,15364.00
2017-10-29T09:14:23.283Z,16384.00
2017-10-29T09:15:23.267Z,15352.00
2017-10-29T09:16:23.258Z,17568.00
2017-10-29T09:17:23.262Z,18528.00
2017-10-29T09:18:23.243Z,11928.00
2017-10-29T09:19:23.237Z,13404.00
2017-10-29T09:20:23.233Z,42016.00
2017-10-29T09:21:23.222Z,38048.00
2017-10-29T09:22:23.214Z,48896.00
2017-10-29T09:23:23.208Z,49696.00
2017-10-29T09:24:23.199Z,51424.00
2017-10-29T09:25:23.190Z,50656.00
2017-10-29T09:26:23.183Z,18400.00
2017-10-29T09:27:23.177Z,51232.00
2017-10-29T09:28:23.170Z,58752.00
2017-10-29T09:29:23.162Z,61280.00
2017-10-29T09:30:23.154Z,27936.00
2017-10-29T09:31:23.157Z,24832.00
2017-10-29T09:32:23.143Z,20928.00
2017-10-29T09:33:23.137Z,36160.00
2017-10-29T09:34:23.128Z,62752.00
2017-10-29T09:35:23.124Z,60384.00
2017-10-29T09:36:23.114Z,61184.00
2017-10-29T09:37:23.252Z,19520.00
2017-10-29T09:38:23.106Z,57728.00
2017-10-29T09:39:23.098Z,59520.00
2017-10-29T09:40:23.091Z,60864.00
2017-10-29T09:41:23.082Z,61280.00
2017-10-29T09:42:23.078Z,56096.00
2017-10-29T09:43:23.074Z,22848.00
2017-10-29T09:44:23.068Z,50944.00
2017-10-29T09:45:23.061Z,57952.00
2017-10-29T09:46:23.057Z,58848.00
2017-10-29T09:47:23.050Z,59680.00
2017-10-29T09:48:23.042Z,63136.00
2017-10-29T09:49:23.049Z,64064.00
2017-10-29T09:50:23.037Z,47360.00
2017-10-29T09:51:23.039Z,13284.00
2017-10-29T09:52:23.031Z,26368.00
2017-10-29T09:53:23.020Z,63552.00
2017-10-29T09:54:23.019Z,57760.00
2017-10-29T09:55:23.013Z,60192.00
2017-10-29T09:56:23.007Z,16544.00
2017-10-29T09:57:23.004Z,17024.00
2017-10-29T09:58:23.000Z,48224.00
2017-10-29T09:59:22.996Z,45984.00
2017-10-29T10:00:22.993Z,13864.00
2017-10-29T10:01:22.987Z,15756.00
2017-10-29T10:02:22.982Z,16204.00
2017-10-29T10:03:22.980Z,61216.00
2017-10-29T10:04:22.973Z,56864.00
2017-10-29T10:05:22.973Z,58144.00
2017-10-29T10:06:22.970Z,60928.00
2017-10-29T10:07:22.958Z,66336.00
2017-10-29T10:08:22.955Z,70208.00
2017-10-29T10:09:22.955Z,70912.00
2017-10-29T10:10:22.947Z,42560.00
2017-10-29T10:11:22.945Z,29408.00
2017-10-29T10:12:22.937Z,28896.00
2017-10-29T10:13:22.933Z,37984.00
2017-10-29T10:14:22.931Z,33088.00
2017-10-29T10:15:22.941Z,21824.00
2017-10-29T10:16:22.919Z,14420.00
2017-10-29T10:17:22.915Z,15680.00
2017-10-29T10:18:22.911Z,18272.00
2017-10-29T10:19:22.911Z,16800.00
2017-10-29T10:20:22.902Z,15400.00
2017-10-29T10:21:22.912Z,18688.00
2017-10-29T10:22:22.892Z,16928.00
2017-10-29T10:23:22.891Z,13924.00
2017-10-29T10:24:22.884Z,14696.00
2017-10-29T10:25:22.880Z,14708.00
2017-10-29T10:26:22.870Z,11836.00
2017-10-29T10:27:22.866Z,9912.00
2017-10-29T10:28:22.859Z,10956.00
2017-10-29T10:29:22.856Z,8892.00
2017-10-29T10:30:22.855Z,8300.00
2017-10-29T10:31:22.843Z,7880.00
2017-10-29T10:32:22.839Z,8996.00
2017-10-29T10:33:22.829Z,10376.00
2017-10-29T10:34:22.825Z,16612.00
2017-10-29T10:35:22.816Z,65696.00
2017-10-29T10:36:22.826Z,69600.00
2017-10-29T10:37:22.806Z,24736.00
2017-10-29T10:38:22.797Z,73664.00
2017-10-29T10:39:22.792Z,71296.00
2017-10-29T10:40:22.802Z,74752.00
2017-10-29T10:41:22.776Z,36064.00
2017-10-29T10:42:22.774Z,67840.00
2017-10-29T10:43:22.765Z,68256.00
2017-10-29T10:44:22.758Z,70368.00
2017-10-29T10:45:22.755Z,69376.00
2017-10-29T10:46:22.748Z,70240.00
2017-10-29T10:47:22.743Z,68832.00
2017-10-29T10:48:22.743Z,67744.00
2017-10-29T10:49:22.729Z,65792.00
2017-10-29T10:50:22.725Z,60064.00
2017-10-29T10:51:22.721Z,61248.00
2017-10-29T10:52:22.722Z,63392.00
2017-10-29T10:53:22.711Z,64448.00
2017-10-29T10:54:22.709Z,57440.00
2017-10-29T10:55:22.704Z,42272.00
2017-10-29T10:56:22.699Z,27168.00
2017-10-29T10:57:22.696Z,40096.00
2017-10-29T10:58:22.692Z,24416.00
2017-10-29T10:59:22.695Z,27200.00
2017-10-29T11:00:22.683Z,38624.00
2017-10-29T11:01:22.686Z,39040.00
2017-10-29T11:02:22.687Z,35200.00
2017-10-29T11:03:22.678Z,30912.00
2017-10-29T11:04:22.673Z,38720.00
2017-10-29T11:05:22.667Z,45120.00
2017-10-29T11:06:22.664Z,21504.00
2017-10-29T11:07:22.664Z,53216.00
2017-10-29T11:08:22.661Z,19744.00
2017-10-29T11:09:22.656Z,15800.00
2017-10-29T11:10:22.655Z,63936.00
2017-10-29T11:11:22.651Z,22048.00
2017-10-29T11:12:22.651Z,57536.00
2017-10-29T11:13:22.644Z,37120.00
2017-10-29T11:14:22.646Z,71680.00
2017-10-29T11:15:22.640Z,99840.00
2017-10-29T11:16:22.641Z,79168.00
2017-10-29T11:17:22.638Z,46944.00
2017-10-29T11:18:22.633Z,25920.00
2017-10-29T11:19:22.632Z,20480.00
2017-10-29T11:20:22.627Z,27168.00
2017-10-29T11:21:22.625Z,13488.00
2017-10-29T11:22:22.630Z,19392.00
2017-10-29T11:23:22.619Z,29888.00
2017-10-29T11:24:22.614Z,17088.00
2017-10-29T11:25:22.614Z,27968.00
2017-10-29T11:26:22.609Z,75648.00
2017-10-29T11:27:22.609Z,70016.00
2017-10-29T11:28:22.603Z,42304.00
2017-10-29T11:29:22.606Z,26624.00
2017-10-29T11:30:22.597Z,20256.00
2017-10-29T11:31:22.594Z,20640.00
2017-10-29T11:32:22.590Z,34336.00
2017-10-29T11:33:22.588Z,26368.00
2017-10-29T11:34:22.583Z,54432.00
2017-10-29T11:35:22.580Z,73472.00
2017-10-29T11:36:22.575Z,75712.00
2017-10-29T11:37:22.573Z,32288.00
2017-10-29T11:38:22.568Z,16224.00
2017-10-29T11:39:22.574Z,14552.00
2017-10-29T11:40:22.561Z,24768.00
2017-10-29T11:41:22.556Z,23488.00
2017-10-29T11:42:22.555Z,7368.00
2017-10-29T11:43:22.554Z,4788.00
2017-10-29T11:44:22.565Z,3912.00
2017-10-29T11:45:22.544Z,4248.00
2017-10-29T11:46:22.539Z,5284.00
2017-10-29T11:47:22.533Z,7264.00
2017-10-29T11:48:22.529Z,11508.00
2017-10-29T11:49:22.535Z,19840.00
2017-10-29T11:50:22.518Z,34144.00
2017-10-29T11:51:22.514Z,38016.00
2017-10-29T11:52:22.509Z,34944.00
2017-10-29T11:53:22.505Z,31744.00
2017-10-29T11:54:22.505Z,27744.00
2017-10-29T11:55:22.496Z,24864.00
2017-10-29T11:56:22.491Z,23904.00
2017-10-29T11:57:22.486Z,22944.00
2017-10-29T11:58:22.480Z,21984.00
2017-10-29T11:59:22.475Z,21024.00
2017-10-29T12:00:22.472Z,20320.00
2017-10-29T12:01:22.464Z,21056.00
2017-10-29T12:02:22.460Z,18816.00
2017-10-29T12:03:22.456Z,19776.00
2017-10-29T12:04:22.451Z,19424.00
2017-10-29T12:05:22.456Z,19232.00
2017-10-29T12:06:22.459Z,19008.00
2017-10-29T12:07:22.443Z,18624.00
2017-10-29T12:08:22.436Z,18688.00
2017-10-29T12:09:22.434Z,18528.00
2017-10-29T12:10:22.431Z,18496.00
2017-10-29T12:11:22.426Z,18272.00
2017-10-29T12:12:22.431Z,18112.00
2017-10-29T12:13:22.418Z,18368.00
2017-10-29T12:14:22.419Z,17952.00
2017-10-29T12:15:22.411Z,19552.00
2017-10-29T12:16:22.409Z,20320.00
2017-10-29T12:17:22.410Z,20416.00
2017-10-29T12:18:22.405Z,13356.00
2017-10-29T12:19:22.398Z,22528.00
2017-10-29T12:20:22.395Z,18688.00
2017-10-29T12:21:22.394Z,9460.00
2017-10-29T12:22:22.387Z,9776.00
2017-10-29T12:23:22.385Z,10460.00
2017-10-29T12:24:22.389Z,14744.00
2017-10-29T12:25:22.380Z,13444.00
2017-10-29T12:26:22.381Z,10108.00
2017-10-29T12:27:22.381Z,17952.00
2017-10-29T12:28:22.391Z,20480.00
2017-10-29T12:29:22.364Z,16960.00
2017-10-29T12:30:22.365Z,17792.00
2017-10-29T12:31:22.360Z,19040.00
2017-10-29T12:32:22.352Z,18144.00